createdAt,value
2018-07-08T00:01:34.866Z,52.61
2018-07-08T00:04:02.822Z,50.98
2018-07-08T00:06:31.026Z,52.12
2018-07-08T00:08:58.994Z,53.47
2018-07-08T00:11:26.960Z,50.40
2018-07-08T00:13:54.941Z,50.57
2018-07-08T00:16:23.197Z,53.47
2018-07-08T00:18:51.053Z,55.33
2018-07-08T00:21:18.966Z,55.00
2018-07-08T00:23:46.949Z,52.92
2018-07-08T00:26:15.115Z,50.64
2018-07-08T00:28:42.975Z,52.46
2018-07-08T00:31:10.916Z,51.75
2018-07-08T00:33:38.777Z,52.50
2018-07-08T00:36:06.749Z,51.26
2018-07-08T00:38:34.709Z,50.75
2018-07-08T00:41:02.578Z,52.25
2018-07-08T00:43:30.518Z,51.35
2018-07-08T00:45:58.477Z,52.89
2018-07-08T00:48:26.394Z,51.12
2018-07-08T00:50:54.395Z,52.52
2018-07-08T00:53:22.284Z,52.09
2018-07-08T00:55:50.168Z,53.16
2018-07-08T00:58:18.050Z,53.54
2018-07-08T01:00:45.993Z,55.04
2018-07-08T01:03:13.974Z,52.90
2018-07-08T01:05:41.829Z,52.85
2018-07-08T01:08:09.720Z,52.51
2018-07-08T01:10:37.600Z,53.21
2018-07-08T01:13:05.573Z,52.33
2018-07-08T01:15:33.458Z,53.28
2018-07-08T01:18:01.347Z,54.43
2018-07-08T01:20:29.385Z,54.06
2018-07-08T01:22:57.350Z,54.00
2018-07-08T01:25:42.511Z,53.22
2018-07-08T01:28:11.085Z,54.44
2018-07-08T01:30:39.080Z,54.20
2018-07-08T01:33:06.976Z,55.67
2018-07-08T01:35:34.880Z,55.72
2018-07-08T01:38:02.875Z,53.79
2018-07-08T01:40:30.787Z,54.29
2018-07-08T01:42:58.742Z,54.97
2018-07-08T01:45:26.686Z,54.12
2018-07-08T01:47:54.549Z,55.37
2018-07-08T01:50:22.441Z,55.41
2018-07-08T01:52:50.445Z,56.02
2018-07-08T01:55:18.360Z,56.28
2018-07-08T01:57:46.317Z,54.97
2018-07-08T02:00:14.323Z,54.39
2018-07-08T02:02:43.494Z,54.84
2018-07-08T02:05:11.389Z,55.59
2018-07-08T02:07:39.345Z,54.75
2018-07-08T02:10:07.341Z,54.28
2018-07-08T02:12:35.896Z,55.04
2018-07-08T02:15:04.094Z,55.04
2018-07-08T02:17:32.046Z,55.09
2018-07-08T02:20:00.082Z,54.46
2018-07-08T02:22:28.121Z,54.93
2018-07-08T02:24:56.274Z,55.41
2018-07-08T02:27:24.182Z,54.74
2018-07-08T02:29:52.178Z,56.29
2018-07-08T02:32:20.223Z,55.32
2018-07-08T02:34:48.168Z,55.83
2018-07-08T02:37:16.101Z,55.69
2018-07-08T02:39:44.608Z,55.02
2018-07-08T02:42:12.761Z,56.14
2018-07-08T02:44:40.759Z,55.30
2018-07-08T02:47:08.736Z,55.33
2018-07-08T02:49:36.698Z,55.48
2018-07-08T02:52:04.745Z,55.16
2018-07-08T02:54:32.672Z,56.19
2018-07-08T02:57:00.580Z,55.29
2018-07-08T02:59:28.389Z,55.06
2018-07-08T03:01:56.326Z,54.97
2018-07-08T03:04:24.257Z,55.38
2018-07-08T03:06:52.457Z,54.94
2018-07-08T03:09:20.285Z,54.60
2018-07-08T03:11:48.145Z,55.16
2018-07-08T03:14:16.018Z,54.86
2018-07-08T03:16:43.962Z,55.38
2018-07-08T03:19:11.884Z,55.36
2018-07-08T03:21:39.794Z,56.67
2018-07-08T03:24:07.725Z,55.88
2018-07-08T03:26:35.622Z,55.96
2018-07-08T03:29:03.564Z,56.08
2018-07-08T03:31:31.506Z,56.26
2018-07-08T03:33:59.376Z,55.42
2018-07-08T03:36:27.274Z,57.14
2018-07-08T03:38:55.174Z,56.38
2018-07-08T03:41:23.168Z,56.93
2018-07-08T03:43:51.049Z,57.35
2018-07-08T03:46:18.954Z,56.90
2018-07-08T03:48:46.805Z,57.70
2018-07-08T03:51:14.768Z,56.64
2018-07-08T03:53:42.677Z,56.69
2018-07-08T03:56:10.489Z,58.44
2018-07-08T03:58:38.483Z,56.96
2018-07-08T04:01:06.374Z,57.12
2018-07-08T04:03:34.336Z,56.78
2018-07-08T04:06:02.237Z,57.73
2018-07-08T04:08:30.125Z,57.47
2018-07-08T04:10:58.045Z,56.51
2018-07-08T04:13:26.009Z,57.49
2018-07-08T04:15:53.965Z,57.66
2018-07-08T04:18:21.848Z,57.46
2018-07-08T04:20:49.777Z,56.58
2018-07-08T04:23:17.669Z,56.57
2018-07-08T04:25:45.622Z,57.05
2018-07-08T04:28:13.550Z,56.33
2018-07-08T04:30:41.465Z,57.31
2018-07-08T04:33:09.324Z,56.42
2018-07-08T04:35:37.205Z,55.50
2018-07-08T04:38:05.226Z,55.56
2018-07-08T04:40:33.070Z,56.15
2018-07-08T04:43:00.958Z,56.45
2018-07-08T04:45:28.869Z,55.67
2018-07-08T04:47:56.784Z,55.36
2018-07-08T04:50:24.672Z,55.58
2018-07-08T04:52:52.888Z,54.89
2018-07-08T04:55:22.108Z,54.92
2018-07-08T04:57:50.237Z,54.43
2018-07-08T05:00:18.087Z,53.19
2018-07-08T05:02:46.043Z,51.19
2018-07-08T05:05:14.009Z,49.43
2018-07-08T05:07:41.917Z,47.04
2018-07-08T05:10:09.780Z,45.20
2018-07-08T05:12:37.717Z,43.39
2018-07-08T05:15:06.037Z,41.38
2018-07-08T05:17:33.977Z,39.36
2018-07-08T05:20:05.091Z,38.10
2018-07-08T05:22:33.073Z,37.42
2018-07-08T05:25:01.022Z,35.54
2018-07-08T05:27:28.965Z,34.59
2018-07-08T05:29:57.036Z,34.34
2018-07-08T05:32:24.848Z,33.27
2018-07-08T05:34:52.869Z,31.83
2018-07-08T05:37:20.897Z,31.67
2018-07-08T05:39:49.259Z,30.94
2018-07-08T05:42:17.792Z,30.42
2018-07-08T05:44:46.140Z,29.51
2018-07-08T05:47:14.722Z,29.39
2018-07-08T05:49:42.877Z,28.35
2018-07-08T05:52:11.081Z,28.09
2018-07-08T05:54:39.580Z,28.06
2018-07-08T05:57:07.934Z,28.22
2018-07-08T05:59:35.853Z,28.37
2018-07-08T06:02:04.030Z,28.73
2018-07-08T06:04:31.936Z,30.07
2018-07-08T06:06:59.935Z,31.02
2018-07-08T06:09:27.869Z,31.23
2018-07-08T06:11:55.904Z,31.97
2018-07-08T06:14:24.678Z,32.27
2018-07-08T06:16:53.081Z,32.33
2018-07-08T06:19:20.944Z,31.09
2018-07-08T06:21:48.801Z,31.94
2018-07-08T06:24:16.721Z,31.86
2018-07-08T06:26:46.253Z,32.07
2018-07-08T06:29:14.298Z,32.39
2018-07-08T06:31:42.755Z,32.73
2018-07-08T06:34:11.416Z,33.15
2018-07-08T06:36:39.950Z,32.27
2018-07-08T06:39:08.089Z,32.03
2018-07-08T06:41:36.178Z,32.17
2018-07-08T06:44:04.217Z,32.50
2018-07-08T06:46:32.133Z,33.86
2018-07-08T06:49:00.209Z,34.57
2018-07-08T06:51:28.213Z,34.88
2018-07-08T06:53:56.101Z,35.29
2018-07-08T06:56:24.000Z,35.91
2018-07-08T06:58:52.039Z,34.49
2018-07-08T07:01:19.957Z,35.45
2018-07-08T07:03:47.877Z,35.43
2018-07-08T07:06:15.857Z,35.24
2018-07-08T07:08:43.765Z,35.81
2018-07-08T07:11:11.672Z,35.57
2018-07-08T07:13:39.572Z,35.83
2018-07-08T07:16:07.473Z,35.97
2018-07-08T07:18:35.542Z,36.22
2018-07-08T07:21:03.798Z,36.79
2018-07-08T07:23:31.792Z,36.35
2018-07-08T07:25:59.742Z,36.05
2018-07-08T07:28:27.606Z,37.38
2018-07-08T07:30:55.541Z,36.93
2018-07-08T07:33:23.416Z,37.24
2018-07-08T07:35:51.333Z,37.17
2018-07-08T07:38:19.203Z,37.66
2018-07-08T07:40:47.101Z,38.14
2018-07-08T07:43:15.171Z,38.78
2018-07-08T07:45:43.100Z,38.87
2018-07-08T07:48:11.009Z,38.88
2018-07-08T07:50:38.869Z,39.14
2018-07-08T07:53:06.849Z,39.62
2018-07-08T07:55:34.758Z,39.90
2018-07-08T07:58:02.685Z,39.67
2018-07-08T08:00:30.545Z,39.19
2018-07-08T08:02:58.463Z,38.94
2018-07-08T08:05:26.297Z,40.14
2018-07-08T08:07:54.235Z,39.67
2018-07-08T08:10:22.113Z,38.64
2018-07-08T08:12:50.046Z,39.30
2018-07-08T08:15:17.998Z,40.01
2018-07-08T08:17:45.908Z,40.14
2018-07-08T08:20:13.784Z,40.04
2018-07-08T08:22:41.757Z,39.24
2018-07-08T08:25:09.653Z,39.11
2018-07-08T08:27:37.573Z,38.90
2018-07-08T08:30:05.588Z,39.07
2018-07-08T08:32:33.469Z,38.22
2018-07-08T08:35:14.576Z,38.57
2018-07-08T08:37:44.114Z,38.37
2018-07-08T08:40:13.689Z,38.47
2018-07-08T08:42:42.449Z,38.61
2018-07-08T08:45:12.256Z,37.94
2018-07-08T08:47:40.812Z,38.14
2018-07-08T08:50:09.813Z,37.33
2018-07-08T08:52:37.877Z,36.42
2018-07-08T08:55:07.088Z,36.11
2018-07-08T08:57:34.956Z,36.08
2018-07-08T09:00:04.357Z,34.53
2018-07-08T09:02:32.257Z,34.58
2018-07-08T09:05:00.221Z,34.85
2018-07-08T09:07:28.109Z,33.55
2018-07-08T09:09:56.038Z,34.47
2018-07-08T09:12:24.021Z,33.39
2018-07-08T09:14:51.901Z,33.84
2018-07-08T09:17:20.337Z,34.34
2018-07-08T09:19:48.133Z,35.10
2018-07-08T09:22:16.090Z,33.70
2018-07-08T09:24:43.953Z,34.63
2018-07-08T09:27:11.989Z,33.97
2018-07-08T09:29:39.819Z,33.84
2018-07-08T09:32:07.693Z,32.05
2018-07-08T09:34:35.769Z,31.04
2018-07-08T09:37:03.732Z,31.42
2018-07-08T09:39:31.697Z,31.23
2018-07-08T09:41:59.622Z,30.99
2018-07-08T09:44:27.542Z,30.78
2018-07-08T09:46:55.521Z,28.11
2018-07-08T09:49:23.449Z,27.44
2018-07-08T09:51:51.946Z,27.79
2018-07-08T09:54:19.922Z,26.75
2018-07-08T09:56:47.789Z,25.81
2018-07-08T09:59:15.677Z,23.56
2018-07-08T10:01:45.583Z,20.66
2018-07-08T10:04:28.476Z,19.93
2018-07-08T10:06:56.428Z,18.40
2018-07-08T10:09:24.924Z,17.70
2018-07-08T10:11:52.773Z,15.85
2018-07-08T10:14:21.786Z,15.58
2018-07-08T10:16:49.984Z,15.13
2018-07-08T10:19:19.031Z,13.31
2018-07-08T10:21:46.878Z,12.56
2018-07-08T10:24:15.113Z,11.68
2018-07-08T10:26:43.025Z,12.19
2018-07-08T10:29:15.640Z,11.58
2018-07-08T10:31:49.057Z,12.01
2018-07-08T10:34:17.140Z,12.64
2018-07-08T10:36:45.070Z,10.98
2018-07-08T10:39:13.949Z,11.86
2018-07-08T10:41:42.209Z,9.79
2018-07-08T10:44:10.401Z,10.26
2018-07-08T10:46:39.566Z,9.49
2018-07-08T10:49:07.785Z,9.38
2018-07-08T10:51:35.835Z,9.93
2018-07-08T10:54:03.925Z,8.81
2018-07-08T10:56:31.821Z,7.96
2018-07-08T10:58:59.693Z,8.56
2018-07-08T11:01:27.802Z,8.85
2018-07-08T11:03:56.149Z,8.81
2018-07-08T11:06:24.900Z,8.52
2018-07-08T11:08:52.801Z,8.71
2018-07-08T11:11:20.816Z,9.01
2018-07-08T11:13:48.764Z,8.28
2018-07-08T11:16:17.646Z,8.37
2018-07-08T11:18:45.750Z,8.00
2018-07-08T11:21:13.737Z,8.36
2018-07-08T11:23:41.613Z,8.37
2018-07-08T11:26:09.522Z,7.98
2018-07-08T11:28:37.485Z,7.51
2018-07-08T11:31:05.544Z,6.99
2018-07-08T11:33:33.961Z,8.24
2018-07-08T11:36:01.916Z,7.93
2018-07-08T11:38:29.756Z,7.67
2018-07-08T11:40:57.669Z,7.11
2018-07-08T11:43:25.863Z,7.29
2018-07-08T11:45:53.821Z,6.86
2018-07-08T11:48:21.777Z,8.52
2018-07-08T11:50:49.738Z,8.19
2018-07-08T11:53:17.617Z,7.79
2018-07-08T11:55:45.485Z,8.28
2018-07-08T11:58:13.412Z,8.48
2018-07-08T12:00:41.313Z,8.81
2018-07-08T12:03:09.170Z,8.56
2018-07-08T12:05:37.792Z,7.79
2018-07-08T12:08:05.653Z,8.76
2018-07-08T12:10:33.505Z,8.39
2018-07-08T12:13:01.565Z,9.45
2018-07-08T12:15:29.710Z,8.90
2018-07-08T12:17:58.197Z,9.73
2018-07-08T12:20:27.189Z,9.70
2018-07-08T12:22:55.274Z,8.90
2018-07-08T12:25:24.061Z,9.81
2018-07-08T12:27:52.014Z,10.18
2018-07-08T12:30:19.921Z,10.29
2018-07-08T12:32:47.809Z,9.96
2018-07-08T12:35:15.691Z,9.97
2018-07-08T12:37:43.689Z,9.36
2018-07-08T12:40:11.661Z,9.67
2018-07-08T12:42:39.585Z,10.11
2018-07-08T12:45:08.149Z,9.88
2018-07-08T12:47:37.191Z,10.42
2018-07-08T12:50:05.326Z,9.64
2018-07-08T12:52:33.225Z,9.90
2018-07-08T12:55:01.093Z,10.09
2018-07-08T12:57:29.659Z,10.26
2018-07-08T12:59:57.545Z,10.56
2018-07-08T13:02:25.408Z,10.90
2018-07-08T13:04:53.467Z,10.99
2018-07-08T13:07:21.339Z,10.13
2018-07-08T13:09:49.212Z,9.70
2018-07-08T13:12:17.165Z,10.06
2018-07-08T13:14:45.078Z,11.54
2018-07-08T13:17:13.270Z,11.02
2018-07-08T13:19:41.170Z,11.57
2018-07-08T13:22:09.129Z,11.07
2018-07-08T13:24:37.112Z,11.98
2018-07-08T13:27:05.155Z,11.67
2018-07-08T13:29:33.948Z,13.08
2018-07-08T13:32:01.839Z,13.17
2018-07-08T13:34:29.769Z,14.33
2018-07-08T13:36:57.678Z,13.23
2018-07-08T13:39:25.578Z,13.47
2018-07-08T13:41:53.416Z,13.75
2018-07-08T13:44:21.285Z,14.22
2018-07-08T13:46:49.225Z,14.08
2018-07-08T13:49:17.170Z,13.78
2018-07-08T13:51:45.065Z,14.17
2018-07-08T13:54:12.983Z,14.06
2018-07-08T13:56:40.873Z,14.73
2018-07-08T13:59:08.747Z,14.01
2018-07-08T14:01:37.675Z,14.41
2018-07-08T14:04:05.594Z,14.78
2018-07-08T14:06:33.577Z,15.49
2018-07-08T14:09:01.525Z,14.68
2018-07-08T14:11:29.385Z,15.88
2018-07-08T14:13:57.325Z,15.80
2018-07-08T14:16:25.187Z,14.61
2018-07-08T14:18:53.088Z,15.08
2018-07-08T14:21:21.030Z,15.63
2018-07-08T14:23:48.925Z,15.71
2018-07-08T14:26:16.847Z,14.58
2018-07-08T14:28:44.768Z,15.87
2018-07-08T14:31:12.680Z,15.84
2018-07-08T14:33:40.912Z,15.03
2018-07-08T14:36:08.865Z,15.83
2018-07-08T14:38:36.776Z,15.80
2018-07-08T14:41:05.304Z,15.15
2018-07-08T14:43:33.300Z,15.65
2018-07-08T14:46:01.167Z,16.48
2018-07-08T14:48:29.063Z,15.78
2018-07-08T14:50:56.990Z,16.93
2018-07-08T14:53:24.937Z,16.42
2018-07-08T14:55:52.943Z,16.42
2018-07-08T14:58:20.982Z,17.94
2018-07-08T15:00:48.834Z,17.51
2018-07-08T15:03:16.755Z,16.92
2018-07-08T15:05:44.667Z,18.02
2018-07-08T15:08:12.504Z,17.42
2018-07-08T15:10:40.468Z,18.09
2018-07-08T15:13:08.468Z,17.52
2018-07-08T15:15:36.364Z,18.17
2018-07-08T15:18:04.515Z,17.65
2018-07-08T15:20:32.345Z,18.02
2018-07-08T15:23:00.465Z,17.32
2018-07-08T15:25:28.283Z,18.42
2018-07-08T15:27:56.133Z,18.05
2018-07-08T15:30:24.074Z,17.17
2018-07-08T15:32:51.986Z,18.35
2018-07-08T15:35:19.892Z,18.23
2018-07-08T15:37:47.793Z,18.19
2018-07-08T15:40:15.729Z,18.00
2018-07-08T15:42:43.936Z,18.00
2018-07-08T15:45:11.903Z,18.07
2018-07-08T15:47:39.785Z,18.43
2018-07-08T15:50:07.689Z,18.91
2018-07-08T15:52:35.813Z,18.82
2018-07-08T15:55:03.796Z,18.73
2018-07-08T15:57:31.652Z,19.20
2018-07-08T15:59:59.560Z,19.17
2018-07-08T16:02:27.446Z,18.68
2018-07-08T16:04:55.564Z,18.28
2018-07-08T16:07:23.470Z,18.18
2018-07-08T16:09:51.392Z,18.51
2018-07-08T16:12:19.380Z,18.22
2018-07-08T16:14:47.288Z,18.87
2018-07-08T16:17:15.154Z,18.91
2018-07-08T16:19:43.026Z,18.58
2018-07-08T16:22:10.865Z,19.54
2018-07-08T16:24:38.821Z,20.06
2018-07-08T16:27:07.341Z,18.80
2018-07-08T16:29:35.265Z,19.69
2018-07-08T16:32:03.257Z,19.35
2018-07-08T16:34:31.577Z,19.61
2018-07-08T16:36:59.642Z,19.39
2018-07-08T16:39:27.643Z,19.65
2018-07-08T16:41:55.665Z,19.58
2018-07-08T16:44:23.581Z,20.03
2018-07-08T16:46:51.443Z,19.62
2018-07-08T16:49:19.448Z,19.71
2018-07-08T16:51:47.302Z,19.55
2018-07-08T16:54:15.728Z,20.06
2018-07-08T16:56:43.697Z,19.70
2018-07-08T16:59:18.965Z,19.62
2018-07-08T17:01:47.006Z,20.22
2018-07-08T17:04:14.927Z,20.76
2018-07-08T17:06:43.020Z,19.94
2018-07-08T17:09:10.894Z,20.27
2018-07-08T17:11:39.014Z,20.38
2018-07-08T17:14:07.106Z,21.14
2018-07-08T17:16:37.267Z,20.91
2018-07-08T17:19:05.108Z,21.66
2018-07-08T17:21:33.033Z,21.43
2018-07-08T17:24:00.881Z,22.00
2018-07-08T17:26:28.908Z,21.92
2018-07-08T17:28:56.840Z,21.94
2018-07-08T17:31:27.837Z,22.00
2018-07-08T17:34:04.766Z,22.03
2018-07-08T17:36:38.530Z,22.54
2018-07-08T17:39:07.376Z,22.70
2018-07-08T17:41:35.857Z,22.75
2018-07-08T17:44:04.429Z,23.22
2018-07-08T17:46:32.542Z,23.09
2018-07-08T17:49:00.428Z,22.95
2018-07-08T17:51:28.349Z,22.86
2018-07-08T17:53:56.316Z,23.41
2018-07-08T17:56:24.430Z,23.68
2018-07-08T17:58:52.811Z,23.79
2018-07-08T18:01:20.734Z,24.30
2018-07-08T18:03:48.656Z,23.86
2018-07-08T18:06:16.681Z,24.18
2018-07-08T18:08:44.621Z,24.29
2018-07-08T18:11:12.644Z,24.67
2018-07-08T18:13:40.651Z,24.87
2018-07-08T18:16:08.533Z,25.08
2018-07-08T18:18:36.405Z,24.88
2018-07-08T18:21:05.208Z,24.84
2018-07-08T18:23:33.176Z,25.37
2018-07-08T18:26:01.123Z,24.91
2018-07-08T18:28:29.097Z,24.56
2018-07-08T18:30:57.005Z,25.53
2018-07-08T18:33:25.044Z,25.31
2018-07-08T18:35:52.974Z,25.48
2018-07-08T18:38:20.792Z,26.58
2018-07-08T18:40:48.833Z,26.58
2018-07-08T18:43:16.787Z,27.20
2018-07-08T18:45:44.931Z,26.82
2018-07-08T18:48:15.052Z,27.77
2018-07-08T18:50:43.214Z,27.87
2018-07-08T18:53:11.065Z,28.47
2018-07-08T18:55:38.953Z,28.68
2018-07-08T18:58:06.897Z,28.72
2018-07-08T19:00:34.981Z,28.68
2018-07-08T19:03:03.018Z,29.17
2018-07-08T19:05:30.940Z,28.99
2018-07-08T19:07:58.912Z,29.99
2018-07-08T19:10:26.929Z,28.87
2018-07-08T19:12:54.793Z,29.54
2018-07-08T19:15:22.669Z,30.01
2018-07-08T19:17:50.692Z,29.80
2018-07-08T19:20:18.562Z,29.71
2018-07-08T19:22:46.489Z,29.75
2018-07-08T19:25:14.479Z,29.82
2018-07-08T19:27:42.372Z,30.17
2018-07-08T19:30:10.338Z,30.31
2018-07-08T19:32:39.061Z,30.90
2018-07-08T19:35:06.917Z,30.33
2018-07-08T19:37:34.864Z,30.37
2018-07-08T19:40:02.886Z,31.06
2018-07-08T19:42:31.148Z,32.20
2018-07-08T19:44:59.045Z,31.37
2018-07-08T19:47:27.045Z,31.42
2018-07-08T19:49:54.921Z,31.74
2018-07-08T19:52:22.946Z,32.36
2018-07-08T19:54:50.924Z,32.03
2018-07-08T19:57:19.045Z,33.04
2018-07-08T19:59:46.905Z,32.92
2018-07-08T20:02:14.798Z,33.23
2018-07-08T20:04:42.809Z,32.96
2018-07-08T20:07:10.758Z,32.71
2018-07-08T20:09:38.688Z,33.22
2018-07-08T20:12:06.574Z,33.43
2018-07-08T20:14:35.096Z,32.53
2018-07-08T20:17:03.085Z,33.87
2018-07-08T20:19:31.021Z,32.88
2018-07-08T20:21:58.836Z,34.76
2018-07-08T20:24:26.728Z,33.96
2018-07-08T20:26:54.685Z,33.36
2018-07-08T20:29:22.557Z,34.68
2018-07-08T20:31:50.464Z,34.66
2018-07-08T20:34:18.381Z,34.92
2018-07-08T20:36:46.304Z,34.58
2018-07-08T20:39:14.249Z,34.56
2018-07-08T20:41:42.321Z,35.82
2018-07-08T20:44:10.243Z,34.91
2018-07-08T20:46:38.080Z,35.81
2018-07-08T20:49:06.097Z,35.60
2018-07-08T20:51:34.308Z,35.14
2018-07-08T20:54:02.196Z,36.02
2018-07-08T20:56:30.192Z,36.67
2018-07-08T20:58:58.044Z,35.58
2018-07-08T21:01:32.733Z,35.32
2018-07-08T21:04:05.915Z,36.23
2018-07-08T21:06:41.373Z,35.89
2018-07-08T21:09:09.484Z,35.84
2018-07-08T21:11:37.757Z,35.86
2018-07-08T21:14:05.653Z,36.29
2018-07-08T21:16:34.169Z,36.98
2018-07-08T21:19:02.516Z,36.05
2018-07-08T21:21:30.509Z,36.53
2018-07-08T21:23:58.497Z,36.52
2018-07-08T21:26:26.581Z,37.21
2018-07-08T21:28:54.456Z,36.33
2018-07-08T21:31:22.415Z,36.43
2018-07-08T21:33:50.420Z,36.85
2018-07-08T21:36:18.669Z,36.36
2018-07-08T21:38:46.629Z,37.55
2018-07-08T21:41:14.581Z,36.73
2018-07-08T21:43:43.162Z,37.05
2018-07-08T21:46:11.093Z,37.95
2018-07-08T21:48:38.960Z,37.46
2018-07-08T21:51:06.888Z,38.12
2018-07-08T21:53:34.793Z,37.67
2018-07-08T21:56:02.689Z,37.56
2018-07-08T21:58:30.706Z,37.66
2018-07-08T22:01:12.930Z,37.19
2018-07-08T22:03:41.548Z,37.27
2018-07-08T22:06:09.480Z,38.44
2018-07-08T22:08:37.471Z,38.97
2018-07-08T22:11:07.015Z,37.94
2018-07-08T22:13:35.509Z,37.61
2018-07-08T22:16:03.470Z,38.50
2018-07-08T22:18:32.441Z,38.93
2018-07-08T22:21:00.690Z,39.89
2018-07-08T22:23:31.616Z,38.59
2018-07-08T22:26:00.156Z,39.16
2018-07-08T22:28:29.001Z,40.46
2018-07-08T22:30:56.871Z,39.54
2018-07-08T22:33:24.777Z,38.31
2018-07-08T22:35:52.660Z,40.26
2018-07-08T22:38:20.549Z,41.01
2018-07-08T22:40:48.549Z,39.45
2018-07-08T22:43:16.456Z,41.33
2018-07-08T22:45:44.372Z,40.58
2018-07-08T22:48:12.322Z,41.81
2018-07-08T22:50:40.185Z,41.00
2018-07-08T22:53:08.181Z,40.13
2018-07-08T22:55:36.058Z,40.67
2018-07-08T22:58:04.627Z,41.46
2018-07-08T23:00:49.618Z,42.25
2018-07-08T23:04:00.313Z,41.89
2018-07-08T23:06:28.317Z,41.86
2018-07-08T23:09:01.352Z,41.71
2018-07-08T23:11:34.963Z,42.60
2018-07-08T23:14:05.050Z,41.71
2018-07-08T23:16:33.084Z,41.09
2018-07-08T23:19:01.130Z,43.79
2018-07-08T23:21:29.042Z,42.89
2018-07-08T23:23:57.647Z,41.74
2018-07-08T23:26:25.517Z,41.96
2018-07-08T23:28:53.484Z,42.34
2018-07-08T23:31:24.654Z,41.60
2018-07-08T23:33:53.143Z,41.81
2018-07-08T23:36:21.155Z,41.98
2018-07-08T23:38:49.581Z,42.69
2018-07-08T23:41:17.537Z,42.08
2018-07-08T23:43:45.581Z,41.86
2018-07-08T23:46:13.565Z,41.44
2018-07-08T23:48:41.437Z,42.53
2018-07-08T23:51:09.360Z,42.58
2018-07-08T23:53:37.340Z,42.91
2018-07-08T23:56:11.041Z,43.63
2018-07-08T23:58:38.961Z,43.61
